sensor_id;sensor_type;location;lat;lon;timestamp;P1;durP1;ratioP1;P2;durP2;ratioP2
33786;SDS011;29742;51.540;9.358;2022-07-23T00:01:24;11.98;;;5.38;;
33786;SDS011;29742;51.540;9.358;2022-07-23T00:06:25;6.47;;;5.38;;
33786;SDS011;29742;51.540;9.358;2022-07-23T00:11:26;10.85;;;6.28;;
33786;SDS011;29742;51.540;9.358;2022-07-23T00:16:26;9.85;;;6.05;;
33786;SDS011;29742;51.540;9.358;2022-07-23T00:21:27;11.45;;;6.15;;
33786;SDS011;29742;51.540;9.358;2022-07-23T00:26:28;11.02;;;6.82;;
33786;SDS011;29742;51.540;9.358;2022-07-23T00:31:29;10.80;;;6.72;;
33786;SDS011;29742;51.540;9.358;2022-07-23T00:36:30;9.82;;;5.53;;
33786;SDS011;29742;51.540;9.358;2022-07-23T00:41:31;6.32;;;4.97;;
33786;SDS011;29742;51.540;9.358;2022-07-23T00:46:32;13.43;;;6.55;;
33786;SDS011;29742;51.540;9.358;2022-07-23T00:51:33;7.50;;;5.15;;
33786;SDS011;29742;51.540;9.358;2022-07-23T00:56:34;8.85;;;5.20;;
33786;SDS011;29742;51.540;9.358;2022-07-23T01:01:35;14.27;;;6.15;;
33786;SDS011;29742;51.540;9.358;2022-07-23T01:06:37;9.80;;;5.93;;
33786;SDS011;29742;51.540;9.358;2022-07-23T01:11:39;7.60;;;5.25;;
33786;SDS011;29742;51.540;9.358;2022-07-23T01:16:40;8.43;;;5.07;;
33786;SDS011;29742;51.540;9.358;2022-07-23T01:21:46;9.13;;;5.93;;
33786;SDS011;29742;51.540;9.358;2022-07-23T01:26:48;6.57;;;4.53;;
33786;SDS011;29742;51.540;9.358;2022-07-23T01:31:49;12.52;;;5.57;;
33786;SDS011;29742;51.540;9.358;2022-07-23T01:36:50;10.48;;;6.57;;
33786;SDS011;29742;51.540;9.358;2022-07-23T01:41:51;6.75;;;4.82;;
33786;SDS011;29742;51.540;9.358;2022-07-23T01:46:52;8.00;;;5.47;;
33786;SDS011;29742;51.540;9.358;2022-07-23T01:51:53;7.93;;;5.60;;
33786;SDS011;29742;51.540;9.358;2022-07-23T01:57:00;8.88;;;5.15;;
33786;SDS011;29742;51.540;9.358;2022-07-23T02:02:01;8.20;;;5.63;;
33786;SDS011;29742;51.540;9.358;2022-07-23T02:07:04;7.35;;;4.57;;
33786;SDS011;29742;51.540;9.358;2022-07-23T02:12:05;7.80;;;5.13;;
33786;SDS011;29742;51.540;9.358;2022-07-23T02:17:06;12.43;;;6.22;;
33786;SDS011;29742;51.540;9.358;2022-07-23T02:22:07;9.68;;;5.57;;
33786;SDS011;29742;51.540;9.358;2022-07-23T02:27:08;10.70;;;6.63;;
33786;SDS011;29742;51.540;9.358;2022-07-23T02:32:09;14.30;;;6.35;;
33786;SDS011;29742;51.540;9.358;2022-07-23T02:37:09;7.60;;;5.28;;
33786;SDS011;29742;51.540;9.358;2022-07-23T02:42:10;7.85;;;5.82;;
33786;SDS011;29742;51.540;9.358;2022-07-23T02:47:11;9.57;;;5.57;;
33786;SDS011;29742;51.540;9.358;2022-07-23T02:52:12;8.60;;;5.32;;
33786;SDS011;29742;51.540;9.358;2022-07-23T02:57:13;8.18;;;5.57;;
33786;SDS011;29742;51.540;9.358;2022-07-23T03:02:14;7.70;;;5.07;;
33786;SDS011;29742;51.540;9.358;2022-07-23T03:07:18;10.88;;;4.88;;
33786;SDS011;29742;51.540;9.358;2022-07-23T03:12:19;12.32;;;5.75;;
33786;SDS011;29742;51.540;9.358;2022-07-23T03:17:20;10.07;;;5.93;;
33786;SDS011;29742;51.540;9.358;2022-07-23T03:22:21;8.60;;;5.20;;
33786;SDS011;29742;51.540;9.358;2022-07-23T03:27:23;6.97;;;5.80;;
33786;SDS011;29742;51.540;9.358;2022-07-23T03:32:24;8.35;;;5.35;;
33786;SDS011;29742;51.540;9.358;2022-07-23T03:37:25;6.68;;;5.30;;
33786;SDS011;29742;51.540;9.358;2022-07-23T03:42:26;7.75;;;5.28;;
33786;SDS011;29742;51.540;9.358;2022-07-23T03:47:27;8.70;;;5.05;;
33786;SDS011;29742;51.540;9.358;2022-07-23T03:52:28;9.82;;;6.05;;
33786;SDS011;29742;51.540;9.358;2022-07-23T03:57:29;8.70;;;5.65;;
33786;SDS011;29742;51.540;9.358;2022-07-23T04:02:30;9.85;;;5.75;;
33786;SDS011;29742;51.540;9.358;2022-07-23T04:07:31;8.45;;;5.82;;
33786;SDS011;29742;51.540;9.358;2022-07-23T04:12:32;10.95;;;5.35;;
33786;SDS011;29742;51.540;9.358;2022-07-23T04:17:33;8.43;;;5.72;;
33786;SDS011;29742;51.540;9.358;2022-07-23T04:22:34;11.75;;;5.95;;
33786;SDS011;29742;51.540;9.358;2022-07-23T04:27:35;11.23;;;6.35;;
33786;SDS011;29742;51.540;9.358;2022-07-23T04:32:36;8.13;;;5.60;;
33786;SDS011;29742;51.540;9.358;2022-07-23T04:37:37;23.33;;;6.70;;
33786;SDS011;29742;51.540;9.358;2022-07-23T04:42:38;12.98;;;6.03;;
33786;SDS011;29742;51.540;9.358;2022-07-23T04:47:39;14.57;;;7.78;;
33786;SDS011;29742;51.540;9.358;2022-07-23T04:52:40;9.95;;;7.38;;
33786;SDS011;29742;51.540;9.358;2022-07-23T04:57:41;12.65;;;8.00;;
33786;SDS011;29742;51.540;9.358;2022-07-23T05:02:42;11.00;;;7.25;;
33786;SDS011;29742;51.540;9.358;2022-07-23T05:07:43;10.57;;;7.43;;
33786;SDS011;29742;51.540;9.358;2022-07-23T05:12:44;15.65;;;8.02;;
33786;SDS011;29742;51.540;9.358;2022-07-23T05:17:45;14.00;;;7.97;;
33786;SDS011;29742;51.540;9.358;2022-07-23T05:22:46;9.32;;;7.20;;
33786;SDS011;29742;51.540;9.358;2022-07-23T05:27:47;21.75;;;7.30;;
33786;SDS011;29742;51.540;9.358;2022-07-23T05:32:48;19.55;;;6.90;;
33786;SDS011;29742;51.540;9.358;2022-07-23T05:37:49;15.75;;;6.10;;
33786;SDS011;29742;51.540;9.358;2022-07-23T05:42:52;16.55;;;7.32;;
33786;SDS011;29742;51.540;9.358;2022-07-23T05:47:53;11.77;;;6.90;;
33786;SDS011;29742;51.540;9.358;2022-07-23T05:52:54;9.80;;;5.40;;
33786;SDS011;29742;51.540;9.358;2022-07-23T05:57:56;11.77;;;6.55;;
33786;SDS011;29742;51.540;9.358;2022-07-23T06:02:56;10.65;;;6.13;;
33786;SDS011;29742;51.540;9.358;2022-07-23T06:07:57;16.02;;;6.75;;
33786;SDS011;29742;51.540;9.358;2022-07-23T06:12:58;8.85;;;5.82;;
33786;SDS011;29742;51.540;9.358;2022-07-23T06:17:59;13.13;;;5.53;;
33786;SDS011;29742;51.540;9.358;2022-07-23T06:23:00;11.68;;;5.45;;
33786;SDS011;29742;51.540;9.358;2022-07-23T06:28:01;8.20;;;5.60;;
33786;SDS011;29742;51.540;9.358;2022-07-23T06:33:02;8.52;;;5.60;;
33786;SDS011;29742;51.540;9.358;2022-07-23T06:38:03;9.57;;;5.18;;
33786;SDS011;29742;51.540;9.358;2022-07-23T06:43:04;8.73;;;5.20;;
33786;SDS011;29742;51.540;9.358;2022-07-23T06:48:05;9.90;;;5.43;;
33786;SDS011;29742;51.540;9.358;2022-07-23T06:53:06;13.73;;;5.30;;
33786;SDS011;29742;51.540;9.358;2022-07-23T06:58:07;8.77;;;5.63;;
33786;SDS011;29742;51.540;9.358;2022-07-23T07:03:09;9.38;;;5.30;;
33786;SDS011;29742;51.540;9.358;2022-07-23T07:08:10;11.18;;;4.75;;
33786;SDS011;29742;51.540;9.358;2022-07-23T07:13:12;11.05;;;4.88;;
33786;SDS011;29742;51.540;9.358;2022-07-23T07:18:13;9.15;;;4.35;;
33786;SDS011;29742;51.540;9.358;2022-07-23T07:23:14;6.95;;;4.05;;
33786;SDS011;29742;51.540;9.358;2022-07-23T07:28:15;7.25;;;4.40;;
33786;SDS011;29742;51.540;9.358;2022-07-23T07:33:16;10.32;;;4.47;;
33786;SDS011;29742;51.540;9.358;2022-07-23T07:38:17;6.03;;;3.97;;
33786;SDS011;29742;51.540;9.358;2022-07-23T07:43:18;4.40;;;3.28;;
33786;SDS011;29742;51.540;9.358;2022-07-23T07:48:19;7.72;;;3.70;;
33786;SDS011;29742;51.540;9.358;2022-07-23T07:53:20;10.13;;;3.95;;
33786;SDS011;29742;51.540;9.358;2022-07-23T07:58:21;7.38;;;3.60;;
33786;SDS011;29742;51.540;9.358;2022-07-23T08:03:22;6.15;;;4.10;;
33786;SDS011;29742;51.540;9.358;2022-07-23T08:08:23;4.80;;;3.38;;
33786;SDS011;29742;51.540;9.358;2022-07-23T08:13:24;7.30;;;3.53;;
33786;SDS011;29742;51.540;9.358;2022-07-23T08:18:25;4.15;;;3.30;;
33786;SDS011;29742;51.540;9.358;2022-07-23T08:23:26;4.68;;;2.88;;
33786;SDS011;29742;51.540;9.358;2022-07-23T08:28:27;7.45;;;3.95;;
33786;SDS011;29742;51.540;9.358;2022-07-23T08:33:28;4.63;;;3.55;;
33786;SDS011;29742;51.540;9.358;2022-07-23T08:38:29;4.85;;;3.72;;
33786;SDS011;29742;51.540;9.358;2022-07-23T08:43:31;6.32;;;4.30;;
33786;SDS011;29742;51.540;9.358;2022-07-23T08:48:34;6.95;;;3.10;;
33786;SDS011;29742;51.540;9.358;2022-07-23T08:53:36;9.15;;;3.53;;
33786;SDS011;29742;51.540;9.358;2022-07-23T08:58:38;7.30;;;3.30;;
33786;SDS011;29742;51.540;9.358;2022-07-23T09:03:39;7.53;;;3.58;;
33786;SDS011;29742;51.540;9.358;2022-07-23T09:08:41;11.20;;;3.33;;
33786;SDS011;29742;51.540;9.358;2022-07-23T09:18:51;7.18;;;3.88;;
33786;SDS011;29742;51.540;9.358;2022-07-23T09:23:54;9.93;;;3.60;;
33786;SDS011;29742;51.540;9.358;2022-07-23T09:28:59;11.30;;;3.50;;
33786;SDS011;29742;51.540;9.358;2022-07-23T09:34:11;8.45;;;3.40;;
33786;SDS011;29742;51.540;9.358;2022-07-23T09:39:12;6.45;;;3.08;;
33786;SDS011;29742;51.540;9.358;2022-07-23T09:44:17;5.80;;;3.13;;
33786;SDS011;29742;51.540;9.358;2022-07-23T09:49:20;3.95;;;2.53;;
33786;SDS011;29742;51.540;9.358;2022-07-23T09:54:22;6.78;;;2.75;;
33786;SDS011;29742;51.540;9.358;2022-07-23T09:59:26;9.20;;;3.10;;
33786;SDS011;29742;51.540;9.358;2022-07-23T10:04:28;3.75;;;2.53;;
33786;SDS011;29742;51.540;9.358;2022-07-23T10:09:33;5.65;;;2.33;;
33786;SDS011;29742;51.540;9.358;2022-07-23T10:14:35;5.95;;;2.53;;
33786;SDS011;29742;51.540;9.358;2022-07-23T10:19:38;5.15;;;2.92;;
33786;SDS011;29742;51.540;9.358;2022-07-23T10:24:50;4.20;;;2.60;;
33786;SDS011;29742;51.540;9.358;2022-07-23T10:30:05;7.35;;;2.90;;
33786;SDS011;29742;51.540;9.358;2022-07-23T10:40:24;6.95;;;2.90;;
33786;SDS011;29742;51.540;9.358;2022-07-23T10:45:33;2.85;;;2.47;;
33786;SDS011;29742;51.540;9.358;2022-07-23T10:50:34;4.32;;;2.53;;
33786;SDS011;29742;51.540;9.358;2022-07-23T11:00:36;4.63;;;3.05;;
33786;SDS011;29742;51.540;9.358;2022-07-23T11:05:41;5.55;;;2.85;;
33786;SDS011;29742;51.540;9.358;2022-07-23T11:26:46;5.72;;;3.03;;
33786;SDS011;29742;51.540;9.358;2022-07-23T11:32:30;7.15;;;3.10;;
33786;SDS011;29742;51.540;9.358;2022-07-23T11:37:12;8.23;;;3.13;;
33786;SDS011;29742;51.540;9.358;2022-07-23T11:42:14;4.97;;;2.80;;
33786;SDS011;29742;51.540;9.358;2022-07-23T11:47:23;3.83;;;2.97;;
33786;SDS011;29742;51.540;9.358;2022-07-23T11:52:25;4.90;;;2.72;;
33786;SDS011;29742;51.540;9.358;2022-07-23T11:57:27;5.15;;;2.75;;
33786;SDS011;29742;51.540;9.358;2022-07-23T12:02:28;9.88;;;3.33;;
33786;SDS011;29742;51.540;9.358;2022-07-23T12:12:47;3.15;;;2.65;;
33786;SDS011;29742;51.540;9.358;2022-07-23T12:17:49;7.53;;;3.35;;
33786;SDS011;29742;51.540;9.358;2022-07-23T12:22:52;7.35;;;2.95;;
33786;SDS011;29742;51.540;9.358;2022-07-23T12:28:04;5.20;;;2.97;;
33786;SDS011;29742;51.540;9.358;2022-07-23T12:33:08;3.22;;;2.90;;
33786;SDS011;29742;51.540;9.358;2022-07-23T12:38:10;4.55;;;3.10;;
33786;SDS011;29742;51.540;9.358;2022-07-23T12:43:18;3.20;;;2.90;;
33786;SDS011;29742;51.540;9.358;2022-07-23T12:48:26;9.82;;;3.20;;
33786;SDS011;29742;51.540;9.358;2022-07-23T12:53:29;6.60;;;3.03;;
33786;SDS011;29742;51.540;9.358;2022-07-23T13:03:41;6.55;;;3.50;;
33786;SDS011;29742;51.540;9.358;2022-07-23T13:08:42;4.85;;;3.10;;
33786;SDS011;29742;51.540;9.358;2022-07-23T13:13:42;3.20;;;2.65;;
33786;SDS011;29742;51.540;9.358;2022-07-23T13:18:43;5.00;;;3.40;;
33786;SDS011;29742;51.540;9.358;2022-07-23T13:23:44;5.03;;;3.30;;
33786;SDS011;29742;51.540;9.358;2022-07-23T13:28:45;4.57;;;3.80;;
33786;SDS011;29742;51.540;9.358;2022-07-23T13:33:47;3.95;;;3.15;;
33786;SDS011;29742;51.540;9.358;2022-07-23T13:38:48;3.72;;;3.33;;
33786;SDS011;29742;51.540;9.358;2022-07-23T13:43:49;6.35;;;4.80;;
33786;SDS011;29742;51.540;9.358;2022-07-23T13:48:50;5.75;;;3.53;;
33786;SDS011;29742;51.540;9.358;2022-07-23T13:53:51;9.60;;;4.25;;
33786;SDS011;29742;51.540;9.358;2022-07-23T13:58:52;13.13;;;4.43;;
33786;SDS011;29742;51.540;9.358;2022-07-23T14:03:54;7.57;;;4.88;;
33786;SDS011;29742;51.540;9.358;2022-07-23T14:08:55;6.65;;;3.65;;
33786;SDS011;29742;51.540;9.358;2022-07-23T14:13:56;7.38;;;4.75;;
33786;SDS011;29742;51.540;9.358;2022-07-23T14:18:58;5.53;;;4.47;;
33786;SDS011;29742;51.540;9.358;2022-07-23T14:23:59;5.95;;;4.22;;
33786;SDS011;29742;51.540;9.358;2022-07-23T14:29:00;5.75;;;4.55;;
33786;SDS011;29742;51.540;9.358;2022-07-23T14:34:01;5.20;;;4.15;;
33786;SDS011;29742;51.540;9.358;2022-07-23T14:39:02;8.32;;;4.25;;
33786;SDS011;29742;51.540;9.358;2022-07-23T14:44:04;7.95;;;4.50;;
33786;SDS011;29742;51.540;9.358;2022-07-23T14:49:05;7.82;;;4.00;;
33786;SDS011;29742;51.540;9.358;2022-07-23T14:54:06;4.90;;;4.38;;
33786;SDS011;29742;51.540;9.358;2022-07-23T14:59:07;5.95;;;3.70;;
33786;SDS011;29742;51.540;9.358;2022-07-23T15:04:08;5.32;;;3.80;;
33786;SDS011;29742;51.540;9.358;2022-07-23T15:09:09;3.45;;;3.15;;
33786;SDS011;29742;51.540;9.358;2022-07-23T15:14:10;3.83;;;3.47;;
33786;SDS011;29742;51.540;9.358;2022-07-23T15:19:11;5.28;;;3.67;;
33786;SDS011;29742;51.540;9.358;2022-07-23T15:24:12;4.20;;;3.17;;
33786;SDS011;29742;51.540;9.358;2022-07-23T15:29:13;4.82;;;4.00;;
33786;SDS011;29742;51.540;9.358;2022-07-23T15:34:14;5.43;;;3.47;;
33786;SDS011;29742;51.540;9.358;2022-07-23T15:39:15;4.50;;;2.97;;
33786;SDS011;29742;51.540;9.358;2022-07-23T15:44:16;3.28;;;2.92;;
33786;SDS011;29742;51.540;9.358;2022-07-23T15:49:17;4.85;;;3.10;;
33786;SDS011;29742;51.540;9.358;2022-07-23T15:54:18;3.20;;;2.92;;
33786;SDS011;29742;51.540;9.358;2022-07-23T15:59:19;3.92;;;2.80;;
33786;SDS011;29742;51.540;9.358;2022-07-23T16:04:20;3.38;;;3.00;;
33786;SDS011;29742;51.540;9.358;2022-07-23T16:09:21;3.15;;;2.85;;
33786;SDS011;29742;51.540;9.358;2022-07-23T16:14:22;2.80;;;2.60;;
33786;SDS011;29742;51.540;9.358;2022-07-23T16:19:23;4.95;;;2.95;;
33786;SDS011;29742;51.540;9.358;2022-07-23T16:24:24;4.75;;;2.70;;
33786;SDS011;29742;51.540;9.358;2022-07-23T16:29:25;3.42;;;2.42;;
33786;SDS011;29742;51.540;9.358;2022-07-23T16:34:26;4.35;;;2.90;;
33786;SDS011;29742;51.540;9.358;2022-07-23T16:39:27;4.18;;;3.00;;
33786;SDS011;29742;51.540;9.358;2022-07-23T16:44:28;4.00;;;2.80;;
33786;SDS011;29742;51.540;9.358;2022-07-23T16:49:30;4.00;;;2.70;;
33786;SDS011;29742;51.540;9.358;2022-07-23T16:54:31;3.83;;;3.03;;
33786;SDS011;29742;51.540;9.358;2022-07-23T16:59:32;2.88;;;2.30;;
33786;SDS011;29742;51.540;9.358;2022-07-23T17:04:33;7.90;;;3.45;;
33786;SDS011;29742;51.540;9.358;2022-07-23T17:09:35;5.30;;;3.50;;
33786;SDS011;29742;51.540;9.358;2022-07-23T17:14:36;2.78;;;2.47;;
33786;SDS011;29742;51.540;9.358;2022-07-23T17:19:37;3.97;;;2.38;;
33786;SDS011;29742;51.540;9.358;2022-07-23T17:24:38;4.15;;;2.65;;
33786;SDS011;29742;51.540;9.358;2022-07-23T17:29:39;3.67;;;2.38;;
33786;SDS011;29742;51.540;9.358;2022-07-23T17:34:40;5.95;;;3.08;;
33786;SDS011;29742;51.540;9.358;2022-07-23T17:39:41;4.38;;;2.83;;
33786;SDS011;29742;51.540;9.358;2022-07-23T17:44:42;4.20;;;2.33;;
33786;SDS011;29742;51.540;9.358;2022-07-23T17:49:43;5.15;;;2.90;;
33786;SDS011;29742;51.540;9.358;2022-07-23T17:54:44;3.20;;;2.38;;
33786;SDS011;29742;51.540;9.358;2022-07-23T17:59:45;5.20;;;2.42;;
33786;SDS011;29742;51.540;9.358;2022-07-23T18:04:46;4.43;;;2.53;;
33786;SDS011;29742;51.540;9.358;2022-07-23T18:09:47;4.65;;;2.20;;
33786;SDS011;29742;51.540;9.358;2022-07-23T18:14:48;6.72;;;3.00;;
33786;SDS011;29742;51.540;9.358;2022-07-23T18:19:49;20.65;;;7.25;;
33786;SDS011;29742;51.540;9.358;2022-07-23T18:24:50;60.85;;;14.27;;
33786;SDS011;29742;51.540;9.358;2022-07-23T18:29:51;74.90;;;17.63;;
33786;SDS011;29742;51.540;9.358;2022-07-23T18:34:52;53.67;;;16.33;;
33786;SDS011;29742;51.540;9.358;2022-07-23T18:39:54;68.82;;;18.45;;
33786;SDS011;29742;51.540;9.358;2022-07-23T18:44:55;51.97;;;16.25;;
33786;SDS011;29742;51.540;9.358;2022-07-23T18:49:55;47.10;;;14.85;;
33786;SDS011;29742;51.540;9.358;2022-07-23T18:54:56;25.48;;;7.80;;
33786;SDS011;29742;51.540;9.358;2022-07-23T18:59:57;14.63;;;4.32;;
33786;SDS011;29742;51.540;9.358;2022-07-23T19:04:58;11.63;;;3.65;;
33786;SDS011;29742;51.540;9.358;2022-07-23T19:09:59;12.18;;;2.40;;
33786;SDS011;29742;51.540;9.358;2022-07-23T19:15:01;2.92;;;2.28;;
33786;SDS011;29742;51.540;9.358;2022-07-23T19:20:03;6.78;;;2.33;;
33786;SDS011;29742;51.540;9.358;2022-07-23T19:25:05;4.25;;;2.00;;
33786;SDS011;29742;51.540;9.358;2022-07-23T19:30:07;3.75;;;2.17;;
33786;SDS011;29742;51.540;9.358;2022-07-23T19:35:08;2.72;;;1.80;;
33786;SDS011;29742;51.540;9.358;2022-07-23T19:40:09;3.53;;;2.13;;
33786;SDS011;29742;51.540;9.358;2022-07-23T19:45:11;4.90;;;2.20;;
33786;SDS011;29742;51.540;9.358;2022-07-23T19:50:13;5.07;;;1.88;;
33786;SDS011;29742;51.540;9.358;2022-07-23T19:55:14;2.88;;;1.88;;
33786;SDS011;29742;51.540;9.358;2022-07-23T20:00:16;2.00;;;1.70;;
33786;SDS011;29742;51.540;9.358;2022-07-23T20:05:17;2.22;;;1.35;;
33786;SDS011;29742;51.540;9.358;2022-07-23T20:10:18;2.92;;;2.00;;
33786;SDS011;29742;51.540;9.358;2022-07-23T20:15:20;4.38;;;1.67;;
33786;SDS011;29742;51.540;9.358;2022-07-23T20:20:21;2.47;;;1.70;;
33786;SDS011;29742;51.540;9.358;2022-07-23T20:25:22;5.10;;;1.63;;
33786;SDS011;29742;51.540;9.358;2022-07-23T20:30:23;4.05;;;1.77;;
33786;SDS011;29742;51.540;9.358;2022-07-23T20:35:24;1.83;;;1.50;;
33786;SDS011;29742;51.540;9.358;2022-07-23T20:40:25;4.78;;;1.63;;
33786;SDS011;29742;51.540;9.358;2022-07-23T20:45:26;2.03;;;1.67;;
33786;SDS011;29742;51.540;9.358;2022-07-23T20:50:27;2.33;;;1.48;;
33786;SDS011;29742;51.540;9.358;2022-07-23T20:55:28;2.88;;;1.75;;
33786;SDS011;29742;51.540;9.358;2022-07-23T21:00:29;1.67;;;1.48;;
33786;SDS011;29742;51.540;9.358;2022-07-23T21:05:31;3.08;;;1.80;;
33786;SDS011;29742;51.540;9.358;2022-07-23T21:10:32;2.25;;;1.63;;
33786;SDS011;29742;51.540;9.358;2022-07-23T21:15:33;1.80;;;1.50;;
33786;SDS011;29742;51.540;9.358;2022-07-23T21:20:34;2.03;;;1.73;;
33786;SDS011;29742;51.540;9.358;2022-07-23T21:25:54;5.15;;;1.92;;
33786;SDS011;29742;51.540;9.358;2022-07-23T21:30:55;2.33;;;1.50;;
33786;SDS011;29742;51.540;9.358;2022-07-23T21:35:56;2.85;;;1.45;;
33786;SDS011;29742;51.540;9.358;2022-07-23T21:40:57;6.10;;;1.27;;
33786;SDS011;29742;51.540;9.358;2022-07-23T21:45:58;4.63;;;1.95;;
33786;SDS011;29742;51.540;9.358;2022-07-23T21:50:59;2.25;;;1.67;;
33786;SDS011;29742;51.540;9.358;2022-07-23T21:56:00;2.75;;;1.58;;
33786;SDS011;29742;51.540;9.358;2022-07-23T22:01:01;3.28;;;1.60;;
33786;SDS011;29742;51.540;9.358;2022-07-23T22:06:02;1.70;;;1.50;;
33786;SDS011;29742;51.540;9.358;2022-07-23T22:11:03;3.75;;;2.03;;
33786;SDS011;29742;51.540;9.358;2022-07-23T22:16:04;7.78;;;1.70;;
33786;SDS011;29742;51.540;9.358;2022-07-23T22:21:05;4.13;;;1.58;;
33786;SDS011;29742;51.540;9.358;2022-07-23T22:26:06;3.83;;;1.92;;
33786;SDS011;29742;51.540;9.358;2022-07-23T22:31:08;2.75;;;1.80;;
33786;SDS011;29742;51.540;9.358;2022-07-23T22:36:08;3.47;;;1.90;;
33786;SDS011;29742;51.540;9.358;2022-07-23T22:41:10;3.63;;;1.60;;
33786;SDS011;29742;51.540;9.358;2022-07-23T22:46:10;5.07;;;2.00;;
33786;SDS011;29742;51.540;9.358;2022-07-23T22:51:12;4.32;;;1.65;;
33786;SDS011;29742;51.540;9.358;2022-07-23T22:56:13;2.50;;;1.30;;
33786;SDS011;29742;51.540;9.358;2022-07-23T23:01:14;2.47;;;1.60;;
33786;SDS011;29742;51.540;9.358;2022-07-23T23:06:15;3.20;;;1.30;;
33786;SDS011;29742;51.540;9.358;2022-07-23T23:11:16;5.28;;;1.88;;
33786;SDS011;29742;51.540;9.358;2022-07-23T23:16:17;2.50;;;1.35;;
33786;SDS011;29742;51.540;9.358;2022-07-23T23:21:18;3.05;;;1.48;;
33786;SDS011;29742;51.540;9.358;2022-07-23T23:26:19;2.97;;;1.90;;
33786;SDS011;29742;51.540;9.358;2022-07-23T23:31:20;2.10;;;1.58;;
33786;SDS011;29742;51.540;9.358;2022-07-23T23:36:22;2.00;;;1.60;;
33786;SDS011;29742;51.540;9.358;2022-07-23T23:41:23;2.92;;;2.03;;
33786;SDS011;29742;51.540;9.358;2022-07-23T23:46:24;2.67;;;1.52;;
33786;SDS011;29742;51.540;9.358;2022-07-23T23:51:25;6.15;;;2.65;;
33786;SDS011;29742;51.540;9.358;2022-07-23T23:56:26;4.35;;;1.52;;
